Aviation Digital Data Service (ADDS)

Output produced by METARs form (0252 UTC 15 August 2020)
found at http://www.aviationweather.gov/metar/data/
 
Forecast for: OMDB (DUBAI INTL AIRPO, AE)
Text: TAF OMDB 142304Z 1500/1606 10005KT 8000 NSC
Forecast period: 0000 to 0700 UTC 15 August 2020
Forecast type: FROM: standard forecast or significant change
Winds: from the E (100 degrees) at 6 MPH (5 knots; 2.6 m/s)
Visibility: 5 miles (8 km)
Ceiling: unknown
Clouds: missing
Weather: no significant weather forecast for this period
Text: BECMG 1507/1509 33012KT
Forecast period: 0700 to 1600 UTC 15 August 2020
Forecast type: BECOMING: Conditions expected to become as follows by 0900 UTC 15 August 2020
Winds: from the NNW (330 degrees) at 14 MPH (12 knots; 6.2 m/s)
Visibility: 5 miles (8 km)
Ceiling: unknown
Clouds: missing
Weather: no significant weather forecast for this period
Text: BECMG 1516/1518 03005KT
Forecast period: 1600 UTC 15 August 2020 to 0600 UTC 16 August 2020
Forecast type: BECOMING: Conditions expected to become as follows by 1800 UTC 15 August 2020
Winds: from the NNE (30 degrees) at 6 MPH (5 knots; 2.6 m/s)
Visibility: 5 miles (8 km)
Ceiling: unknown
Clouds: missing
Weather: no significant weather forecast for this period